Time;durP1;ratioP1;P1;durP2;ratioP2;P2;SDS_P1;SDS_P2;PMS_P1;PMS_P2;Temp;Humidity;BMP_temperature;BMP_pressure;BME280_temperature;BME280_humidity;BME280_pressure;Samples;Min_cycle;Max_cycle;Signal;HPM_P1;HPM_P2
2021/06/19 00:00:03;;;;;;;7.65;4.30;;;;;;;;;;6285086;22;20035;-86
2021/06/19 00:02:30;;;;;;;12.32;6.22;;;;;;;;;;6287334;22;20070;-87
2021/06/19 00:04:57;;;;;;;9.82;5.72;;;;;;;;;;6284258;22;20039;-86
2021/06/19 00:07:35;;;;;;;10.07;5.88;;;;;;;;;;6284231;22;20038;-87
2021/06/19 00:10:03;;;;;;;10.18;6.15;;;;;;;;;;6283249;22;20089;-87
2021/06/19 00:12:29;;;;;;;10.93;6.10;;;;;;;;;;6283915;22;20032;-87
2021/06/19 00:14:56;;;;;;;14.93;7.45;;;;;;;;;;6257862;22;20038;-86
2021/06/19 00:17:26;;;;;;;13.23;7.15;;;;;;;;;;6257194;22;20077;-87
2021/06/19 00:19:52;;;;;;;9.23;6.40;;;;;;;;;;6282651;22;20039;-87
2021/06/19 00:22:19;;;;;;;7.82;6.60;;;;;;;;;;6283483;22;20026;-86
2021/06/19 00:24:46;;;;;;;15.80;6.93;;;;;;;;;;6255948;22;20078;-86
2021/06/19 00:27:12;;;;;;;17.48;8.13;;;;;;;;;;6282401;22;20024;-87
2021/06/19 00:29:39;;;;;;;10.75;7.47;;;;;;;;;;6282585;22;20046;-86
2021/06/19 00:32:05;;;;;;;10.07;7.35;;;;;;;;;;6283336;22;20093;-86
2021/06/19 00:34:32;;;;;;;13.18;7.70;;;;;;;;;;6282838;22;20361;-87
2021/06/19 00:36:59;;;;;;;16.10;7.55;;;;;;;;;;6254909;22;20023;-87
2021/06/19 00:39:25;;;;;;;13.50;7.72;;;;;;;;;;6281316;22;20027;-86
2021/06/19 00:41:52;;;;;;;9.93;7.30;;;;;;;;;;6255902;22;20035;-86
2021/06/19 00:44:25;;;;;;;13.05;7.30;;;;;;;;;;6281918;22;20031;-86
2021/06/19 00:46:53;;;;;;;11.55;6.68;;;;;;;;;;6255482;22;20030;-87
2021/06/19 00:49:20;;;;;;;11.68;7.20;;;;;;;;;;6281960;22;20024;-86
2021/06/19 00:51:47;;;;;;;13.20;6.63;;;;;;;;;;6282435;22;20070;-87
2021/06/19 00:54:17;;;;;;;12.10;6.65;;;;;;;;;;6281275;22;20031;-86
2021/06/19 00:56:44;;;;;;;13.32;7.00;;;;;;;;;;6254943;22;20024;-86
2021/06/19 00:59:11;;;;;;;11.77;6.60;;;;;;;;;;6283311;22;20126;-86
2021/06/19 01:01:40;;;;;;;11.20;6.90;;;;;;;;;;6280986;22;20479;-87
2021/06/19 01:04:07;;;;;;;14.50;7.15;;;;;;;;;;6255724;22;20089;-86
2021/06/19 01:06:34;;;;;;;12.68;7.03;;;;;;;;;;6255019;22;20023;-86
2021/06/19 01:09:14;;;;;;;10.77;6.82;;;;;;;;;;6280614;22;20024;-86
2021/06/19 01:11:40;;;;;;;16.25;7.53;;;;;;;;;;6279083;22;20409;-86
2021/06/19 01:14:07;;;;;;;12.02;7.43;;;;;;;;;;6283303;22;20024;-86
2021/06/19 01:16:34;;;;;;;12.02;6.95;;;;;;;;;;6283280;22;20102;-87
2021/06/19 01:19:29;;;;;;;8.30;6.32;;;;;;;;;;6282248;22;20346;-86
2021/06/19 01:21:56;;;;;;;12.38;7.18;;;;;;;;;;6282950;22;20027;-85
2021/06/19 01:24:23;;;;;;;10.05;6.88;;;;;;;;;;6283582;22;20027;-86
2021/06/19 01:26:51;;;;;;;9.55;6.72;;;;;;;;;;6282777;22;20027;-86
2021/06/19 01:29:19;;;;;;;13.32;7.18;;;;;;;;;;6258493;22;20045;-87
2021/06/19 01:31:46;;;;;;;11.20;7.57;;;;;;;;;;6262031;22;20043;-86
2021/06/19 01:34:13;;;;;;;16.25;7.40;;;;;;;;;;6264240;22;20038;-86
2021/06/19 01:36:40;;;;;;;14.77;6.82;;;;;;;;;;6264783;22;20023;-85
2021/06/19 01:39:07;;;;;;;12.45;6.88;;;;;;;;;;6285960;22;20051;-88
2021/06/19 01:41:39;;;;;;;13.38;6.97;;;;;;;;;;6281178;22;20032;-86
2021/06/19 01:44:10;;;;;;;10.13;6.95;;;;;;;;;;6282571;22;20066;-85
2021/06/19 01:46:38;;;;;;;12.05;6.88;;;;;;;;;;6255067;22;20050;-85
2021/06/19 01:49:05;;;;;;;7.70;6.60;;;;;;;;;;6254618;22;20066;-86
2021/06/19 01:51:32;;;;;;;7.85;5.95;;;;;;;;;;6255445;22;20024;-87
2021/06/19 01:54:00;;;;;;;13.63;7.10;;;;;;;;;;6282551;22;20085;-87
2021/06/19 01:56:26;;;;;;;11.77;7.55;;;;;;;;;;6282610;22;20289;-88
2021/06/19 01:58:55;;;;;;;10.52;6.90;;;;;;;;;;6281438;22;20027;-86
2021/06/19 02:01:22;;;;;;;12.52;6.93;;;;;;;;;;6283007;22;20027;-86
2021/06/19 02:03:55;;;;;;;17.75;7.32;;;;;;;;;;6259807;22;20058;-86
2021/06/19 02:06:22;;;;;;;9.27;6.70;;;;;;;;;;6283078;22;20035;-86
2021/06/19 02:09:08;;;;;;;13.00;7.43;;;;;;;;;;6256043;22;20433;-86
2021/06/19 02:11:38;;;;;;;9.00;6.40;;;;;;;;;;6256984;22;20020;-86
2021/06/19 02:14:04;;;;;;;15.43;7.63;;;;;;;;;;6225536;23;20043;-86
2021/06/19 02:16:31;;;;;;;13.00;6.68;;;;;;;;;;6252068;23;20217;-86
2021/06/19 02:18:57;;;;;;;10.90;6.55;;;;;;;;;;6252958;23;20024;-86
2021/06/19 02:21:24;;;;;;;9.95;6.95;;;;;;;;;;6252805;23;20031;-85
2021/06/19 02:23:51;;;;;;;9.50;6.93;;;;;;;;;;6253289;23;20329;-85
2021/06/19 02:26:18;;;;;;;10.27;6.57;;;;;;;;;;6253062;23;20058;-85
2021/06/19 02:28:44;;;;;;;10.00;7.57;;;;;;;;;;6255695;23;20095;-86
2021/06/19 02:31:11;;;;;;;13.27;9.38;;;;;;;;;;6230168;23;20359;-87
2021/06/19 02:33:38;;;;;;;14.77;9.18;;;;;;;;;;6254546;23;20056;-87
2021/06/19 02:36:11;;;;;;;16.02;9.65;;;;;;;;;;6251973;23;20393;-87
2021/06/19 02:38:38;;;;;;;12.63;8.48;;;;;;;;;;6254598;23;20028;-86
2021/06/19 02:41:07;;;;;;;12.32;10.02;;;;;;;;;;6228059;23;20051;-86
2021/06/19 02:43:42;;;;;;;18.15;10.18;;;;;;;;;;6227727;23;20024;-86
2021/06/19 02:46:08;;;;;;;10.55;9.50;;;;;;;;;;6252172;23;20444;-86
2021/06/19 02:48:38;;;;;;;14.93;10.75;;;;;;;;;;6252916;23;20020;-86
2021/06/19 02:51:14;;;;;;;17.10;11.02;;;;;;;;;;6227886;23;20039;-86
2021/06/19 02:53:45;;;;;;;16.02;11.18;;;;;;;;;;6252905;23;20020;-86
2021/06/19 02:56:14;;;;;;;18.83;12.77;;;;;;;;;;6253519;23;20401;-86
2021/06/19 02:58:41;;;;;;;20.45;12.05;;;;;;;;;;6252888;23;20028;-86
2021/06/19 03:01:26;;;;;;;14.85;11.90;;;;;;;;;;6226656;23;20035;-85
2021/06/19 03:03:57;;;;;;;16.95;11.90;;;;;;;;;;6227897;23;20028;-86
2021/06/19 03:06:23;;;;;;;17.20;11.88;;;;;;;;;;6253064;23;20283;-86
2021/06/19 03:08:50;;;;;;;17.35;10.52;;;;;;;;;;6254414;23;20028;-86
2021/06/19 03:11:23;;;;;;;15.88;10.77;;;;;;;;;;6253366;23;20035;-86
2021/06/19 03:13:49;;;;;;;22.17;12.65;;;;;;;;;;6281071;22;20337;-86
2021/06/19 03:16:16;;;;;;;18.85;13.52;;;;;;;;;;6285724;22;20028;-87
2021/06/19 03:18:45;;;;;;;15.82;13.52;;;;;;;;;;6284520;22;20023;-87
2021/06/19 03:21:21;;;;;;;20.95;13.52;;;;;;;;;;6287464;22;20028;-86
2021/06/19 03:23:54;;;;;;;16.25;13.15;;;;;;;;;;6301414;22;20058;-87
2021/06/19 03:26:20;;;;;;;21.67;13.18;;;;;;;;;;6274470;22;20023;-87
2021/06/19 03:28:50;;;;;;;16.20;12.60;;;;;;;;;;6259207;22;20081;-86
2021/06/19 03:31:17;;;;;;;17.70;14.40;;;;;;;;;;6258879;22;20023;-87
2021/06/19 03:33:44;;;;;;;17.42;14.63;;;;;;;;;;6286781;22;20023;-86
2021/06/19 03:36:10;;;;;;;22.20;15.82;;;;;;;;;;6260306;22;20378;-86
2021/06/19 03:38:43;;;;;;;27.48;17.38;;;;;;;;;;6283307;22;20385;-85
2021/06/19 03:41:10;;;;;;;21.77;17.60;;;;;;;;;;6284868;22;20338;-86
2021/06/19 03:43:39;;;;;;;27.25;22.77;;;;;;;;;;6285033;22;20024;-86
2021/06/19 03:46:05;;;;;;;26.40;21.95;;;;;;;;;;6285290;22;20273;-86
2021/06/19 03:48:44;;;;;;;25.00;22.30;;;;;;;;;;6285447;22;20031;-86
2021/06/19 03:51:11;;;;;;;38.00;27.98;;;;;;;;;;6265447;22;20028;-86
2021/06/19 03:53:37;;;;;;;34.15;24.60;;;;;;;;;;6293186;22;20197;-86
2021/06/19 03:56:04;;;;;;;38.33;27.83;;;;;;;;;;6291693;22;20034;-87
2021/06/19 03:58:31;;;;;;;36.17;29.25;;;;;;;;;;6286083;22;20023;-86
2021/06/19 04:00:58;;;;;;;35.00;28.20;;;;;;;;;;6257370;22;20024;-86
2021/06/19 04:03:25;;;;;;;37.95;30.77;;;;;;;;;;6258738;22;20023;-86
2021/06/19 04:05:52;;;;;;;38.03;31.05;;;;;;;;;;6260055;22;20024;-86
2021/06/19 04:08:37;;;;;;;34.70;29.17;;;;;;;;;;6259907;22;20447;-86
2021/06/19 04:11:04;;;;;;;37.15;30.13;;;;;;;;;;6284774;22;20196;-87
2021/06/19 04:13:30;;;;;;;32.53;27.58;;;;;;;;;;6284046;22;20028;-86
2021/06/19 04:15:57;;;;;;;35.80;27.85;;;;;;;;;;6257903;22;20024;-87
2021/06/19 04:18:30;;;;;;;37.92;30.48;;;;;;;;;;6283598;22;20270;-86
2021/06/19 04:20:57;;;;;;;44.95;31.55;;;;;;;;;;6258594;22;20024;-86
2021/06/19 04:23:23;;;;;;;39.10;30.73;;;;;;;;;;6282967;22;20087;-87
2021/06/19 04:25:50;;;;;;;37.50;27.60;;;;;;;;;;6283949;22;20028;-86
2021/06/19 04:28:19;;;;;;;32.03;26.15;;;;;;;;;;6284660;22;20314;-86
2021/06/19 04:30:46;;;;;;;31.35;25.30;;;;;;;;;;6284996;22;20024;-86
2021/06/19 04:33:34;;;;;;;31.30;24.17;;;;;;;;;;6283639;22;20028;-86
2021/06/19 04:36:02;;;;;;;28.88;21.10;;;;;;;;;;6284284;22;20077;-85
2021/06/19 04:38:29;;;;;;;27.75;21.10;;;;;;;;;;6257556;22;20169;-86
2021/06/19 04:41:00;;;;;;;24.58;19.55;;;;;;;;;;6283081;22;20329;-85
2021/06/19 04:43:32;;;;;;;24.90;19.55;;;;;;;;;;6283723;22;20058;-85
2021/06/19 04:46:02;;;;;;;24.02;17.45;;;;;;;;;;6254465;22;20436;-86
2021/06/19 04:48:28;;;;;;;21.88;15.95;;;;;;;;;;6254809;22;20364;-84
2021/06/19 04:50:55;;;;;;;21.58;15.50;;;;;;;;;;6253311;22;20058;-83
2021/06/19 04:53:24;;;;;;;17.75;13.55;;;;;;;;;;6253306;22;20097;-83
2021/06/19 04:56:03;;;;;;;15.25;12.57;;;;;;;;;;6253941;22;20054;-84
2021/06/19 04:58:30;;;;;;;21.08;11.98;;;;;;;;;;6282680;22;20123;-84
2021/06/19 05:01:01;;;;;;;17.23;11.73;;;;;;;;;;6282864;22;20028;-86
2021/06/19 05:03:43;;;;;;;17.92;10.43;;;;;;;;;;6255779;22;20050;-84
2021/06/19 05:06:10;;;;;;;17.52;10.40;;;;;;;;;;6255149;22;20085;-84
2021/06/19 05:08:40;;;;;;;15.10;10.80;;;;;;;;;;6255659;22;20451;-84
2021/06/19 05:11:07;;;;;;;16.65;10.00;;;;;;;;;;6281204;22;20147;-87
2021/06/19 05:13:34;;;;;;;15.57;8.82;;;;;;;;;;6255143;22;20023;-86
2021/06/19 05:16:00;;;;;;;12.50;8.00;;;;;;;;;;6281489;22;20384;-86
2021/06/19 05:18:28;;;;;;;12.27;8.00;;;;;;;;;;6282224;22;20100;-86
2021/06/19 05:20:55;;;;;;;14.05;7.95;;;;;;;;;;6282260;22;20023;-86
2021/06/19 05:23:27;;;;;;;12.80;6.63;;;;;;;;;;6257259;22;20124;-86
2021/06/19 05:25:54;;;;;;;12.90;7.00;;;;;;;;;;6283906;22;20085;-85
2021/06/19 05:28:22;;;;;;;11.10;6.88;;;;;;;;;;6256218;22;20027;-87
2021/06/19 05:30:49;;;;;;;9.23;5.43;;;;;;;;;;6284064;22;20024;-87
2021/06/19 05:33:17;;;;;;;8.38;5.68;;;;;;;;;;6283106;22;20073;-86
2021/06/19 05:35:43;;;;;;;12.23;5.40;;;;;;;;;;6282035;22;20071;-86
2021/06/19 05:38:11;;;;;;;11.63;5.38;;;;;;;;;;6255180;22;20287;-86
2021/06/19 05:40:37;;;;;;;10.05;5.38;;;;;;;;;;6280203;22;20051;-86
2021/06/19 05:43:08;;;;;;;9.38;4.40;;;;;;;;;;6280515;22;20038;-86
2021/06/19 05:45:35;;;;;;;10.82;6.00;;;;;;;;;;6280992;22;20267;-86
2021/06/19 05:48:12;;;;;;;8.20;5.28;;;;;;;;;;6259868;22;20059;-86
2021/06/19 05:50:40;;;;;;;8.02;5.20;;;;;;;;;;6254645;22;20035;-86
2021/06/19 05:53:07;;;;;;;7.43;5.13;;;;;;;;;;6254052;22;20333;-86
2021/06/19 05:55:33;;;;;;;9.60;5.00;;;;;;;;;;6254176;22;20101;-87
2021/06/19 05:58:01;;;;;;;13.93;5.10;;;;;;;;;;6280862;22;20015;-87
2021/06/19 06:00:28;;;;;;;7.05;5.13;;;;;;;;;;6283674;22;20027;-86
2021/06/19 06:02:55;;;;;;;6.63;4.28;;;;;;;;;;6281364;22;20451;-86
2021/06/19 06:05:26;;;;;;;7.40;4.72;;;;;;;;;;6254125;22;20185;-86
2021/06/19 06:07:55;;;;;;;8.32;4.90;;;;;;;;;;6278284;22;20107;-87
2021/06/19 06:10:22;;;;;;;8.05;4.20;;;;;;;;;;6279767;22;20352;-85
2021/06/19 06:12:52;;;;;;;7.80;3.55;;;;;;;;;;6287716;22;20035;-85
2021/06/19 06:15:22;;;;;;;10.40;4.13;;;;;;;;;;6287203;22;20034;-86
2021/06/19 06:17:49;;;;;;;5.63;3.38;;;;;;;;;;6258209;22;20264;-86
2021/06/19 06:20:16;;;;;;;7.38;2.58;;;;;;;;;;6283115;22;20085;-86
2021/06/19 06:22:43;;;;;;;5.72;2.22;;;;;;;;;;6256753;22;20214;-85
2021/06/19 06:25:11;;;;;;;5.50;2.42;;;;;;;;;;6279991;22;20028;-86
2021/06/19 06:27:39;;;;;;;3.15;2.30;;;;;;;;;;6251989;22;20030;-86
2021/06/19 06:30:06;;;;;;;5.32;2.53;;;;;;;;;;6252895;22;20019;-86
2021/06/19 06:32:34;;;;;;;4.72;2.40;;;;;;;;;;6252980;22;20054;-86
2021/06/19 06:35:13;;;;;;;6.00;2.53;;;;;;;;;;6277781;22;20023;-86
2021/06/19 06:37:40;;;;;;;5.28;2.58;;;;;;;;;;6252952;22;20378;-86
2021/06/19 06:40:13;;;;;;;2.88;1.67;;;;;;;;;;6254415;22;20027;-86
2021/06/19 06:42:41;;;;;;;7.00;2.80;;;;;;;;;;6252577;22;20364;-86
2021/06/19 06:45:13;;;;;;;5.20;2.15;;;;;;;;;;6278638;22;20024;-85
2021/06/19 06:47:46;;;;;;;3.08;2.13;;;;;;;;;;6255500;22;20106;-86
2021/06/19 06:50:16;;;;;;;2.65;1.80;;;;;;;;;;6256129;22;20031;-85
2021/06/19 06:52:54;;;;;;;4.63;1.60;;;;;;;;;;6293734;22;20011;-85
2021/06/19 06:55:20;;;;;;;4.53;1.60;;;;;;;;;;6296031;22;20030;-85
2021/06/19 06:57:50;;;;;;;6.90;2.03;;;;;;;;;;6284429;22;20034;-85
2021/06/19 07:00:24;;;;;;;7.22;2.10;;;;;;;;;;6282338;22;20110;-85
2021/06/19 07:02:53;;;;;;;3.95;2.03;;;;;;;;;;6282205;22;20036;-86
2021/06/19 07:05:19;;;;;;;6.75;2.17;;;;;;;;;;6279924;22;20028;-86
2021/06/19 07:07:47;;;;;;;7.05;2.22;;;;;;;;;;6252388;22;20089;-85
2021/06/19 07:10:17;;;;;;;2.45;2.10;;;;;;;;;;6278883;22;20019;-86
2021/06/19 07:12:45;;;;;;;3.33;2.20;;;;;;;;;;6246759;23;20352;-86
2021/06/19 07:15:16;;;;;;;4.00;2.00;;;;;;;;;;6247843;22;20080;-86
2021/06/19 07:17:49;;;;;;;3.08;1.80;;;;;;;;;;6246229;22;20076;-86
2021/06/19 07:20:17;;;;;;;5.63;2.10;;;;;;;;;;6244434;22;20135;-86
2021/06/19 07:22:45;;;;;;;4.18;2.15;;;;;;;;;;6244082;23;20030;-86
2021/06/19 07:28:37;;;;;;;8.02;2.08;;;;;;;;;;6248535;23;20014;-85
2021/06/19 07:31:04;;;;;;;4.38;2.22;;;;;;;;;;6244208;23;20279;-85
2021/06/19 07:33:31;;;;;;;5.13;1.75;;;;;;;;;;6245640;22;20107;-84
2021/06/19 07:35:57;;;;;;;4.82;1.70;;;;;;;;;;6246899;23;20075;-86
2021/06/19 07:38:29;;;;;;;3.95;2.08;;;;;;;;;;6247133;22;20024;-85
2021/06/19 07:40:57;;;;;;;3.95;1.80;;;;;;;;;;6247741;23;20090;-85
2021/06/19 07:43:24;;;;;;;5.07;2.00;;;;;;;;;;6247346;23;20024;-85
2021/06/19 07:45:51;;;;;;;6.22;2.03;;;;;;;;;;6249122;23;20031;-86
2021/06/19 07:48:17;;;;;;;10.07;2.95;;;;;;;;;;6246401;23;20405;-86
2021/06/19 07:50:44;;;;;;;2.65;1.77;;;;;;;;;;6247076;23;20024;-86
2021/06/19 07:53:11;;;;;;;4.50;1.80;;;;;;;;;;6247203;23;20036;-86
2021/06/19 07:55:41;;;;;;;4.47;1.77;;;;;;;;;;6248129;22;20024;-86
2021/06/19 07:58:07;;;;;;;3.17;1.90;;;;;;;;;;6245435;23;20024;-86
2021/06/19 08:00:34;;;;;;;2.72;1.95;;;;;;;;;;6246087;23;20034;-86
2021/06/19 08:03:10;;;;;;;3.05;1.63;;;;;;;;;;6245550;22;20333;-86
2021/06/19 08:05:36;;;;;;;5.30;1.40;;;;;;;;;;6247205;22;20052;-86
2021/06/19 08:08:03;;;;;;;3.33;1.80;;;;;;;;;;6245766;23;20390;-86
2021/06/19 08:10:30;;;;;;;4.38;1.58;;;;;;;;;;6223048;23;20024;-85
2021/06/19 08:12:56;;;;;;;3.45;1.40;;;;;;;;;;6250380;22;20061;-85
2021/06/19 08:15:23;;;;;;;2.92;1.20;;;;;;;;;;6252990;22;20394;-85
2021/06/19 08:17:50;;;;;;;2.28;1.40;;;;;;;;;;6277848;22;20024;-85
2021/06/19 08:20:18;;;;;;;3.10;1.30;;;;;;;;;;6275312;22;20054;-86
2021/06/19 08:22:45;;;;;;;4.05;1.30;;;;;;;;;;6246614;22;20034;-85
2021/06/19 08:25:12;;;;;;;4.50;1.27;;;;;;;;;;6250902;22;20041;-84
2021/06/19 08:27:39;;;;;;;4.35;1.40;;;;;;;;;;6248921;22;20054;-85
2021/06/19 08:30:07;;;;;;;6.55;1.33;;;;;;;;;;6248561;22;20282;-84
2021/06/19 08:32:39;;;;;;;1.20;0.90;;;;;;;;;;6256259;22;20059;-85
2021/06/19 08:35:07;;;;;;;3.92;1.17;;;;;;;;;;6252973;22;20024;-85
2021/06/19 08:37:33;;;;;;;4.25;1.35;;;;;;;;;;6277604;22;20024;-86
2021/06/19 08:40:00;;;;;;;3.13;1.35;;;;;;;;;;6250944;22;20038;-86
2021/06/19 08:42:30;;;;;;;2.58;1.45;;;;;;;;;;6276375;22;20039;-86
2021/06/19 08:44:57;;;;;;;2.28;1.20;;;;;;;;;;6276573;22;20217;-86
2021/06/19 08:47:24;;;;;;;1.95;0.90;;;;;;;;;;6275927;22;20023;-87
2021/06/19 08:49:53;;;;;;;3.67;0.88;;;;;;;;;;6276667;22;20070;-85
2021/06/19 08:52:20;;;;;;;4.70;0.77;;;;;;;;;;6275492;22;20024;-85
2021/06/19 08:54:48;;;;;;;4.05;0.95;;;;;;;;;;6247420;22;20031;-86
2021/06/19 08:57:16;;;;;;;2.47;0.80;;;;;;;;;;6244610;22;20263;-85
2021/06/19 08:59:46;;;;;;;1.73;0.98;;;;;;;;;;6272990;22;20019;-85
2021/06/19 09:02:13;;;;;;;2.78;0.80;;;;;;;;;;6273373;22;20047;-85
2021/06/19 09:04:59;;;;;;;3.47;0.90;;;;;;;;;;6273241;22;20077;-85
2021/06/19 09:07:33;;;;;;;3.92;1.23;;;;;;;;;;6275023;22;20049;-85
2021/06/19 09:10:21;;;;;;;4.95;1.00;;;;;;;;;;6273004;22;20019;-86
2021/06/19 09:12:54;;;;;;;2.75;1.20;;;;;;;;;;6248310;22;20226;-85
2021/06/19 09:15:28;;;;;;;2.85;1.20;;;;;;;;;;6270959;22;20023;-86
2021/06/19 09:18:03;;;;;;;3.30;1.15;;;;;;;;;;6271024;22;20019;-87
2021/06/19 09:20:52;;;;;;;2.92;1.20;;;;;;;;;;6246941;22;20478;-86
2021/06/19 09:23:25;;;;;;;1.40;0.90;;;;;;;;;;6270310;22;20268;-86
2021/06/19 09:26:12;;;;;;;4.30;0.98;;;;;;;;;;6246038;22;20089;-86
2021/06/19 09:28:56;;;;;;;2.47;1.08;;;;;;;;;;6244564;22;20032;-87
2021/06/19 09:31:33;;;;;;;4.25;1.25;;;;;;;;;;6271853;22;20024;-86
2021/06/19 09:34:01;;;;;;;2.35;1.13;;;;;;;;;;6246105;22;20079;-83
2021/06/19 09:36:35;;;;;;;8.13;1.10;;;;;;;;;;6247903;22;20016;-84
2021/06/19 09:39:11;;;;;;;5.05;1.20;;;;;;;;;;6276209;22;20024;-84
2021/06/19 09:41:39;;;;;;;1.75;1.10;;;;;;;;;;6251163;22;20027;-84
2021/06/19 09:44:09;;;;;;;3.63;1.30;;;;;;;;;;6277652;22;20079;-84
2021/06/19 09:46:36;;;;;;;3.70;1.13;;;;;;;;;;6249511;22;20027;-84
2021/06/19 09:49:28;;;;;;;2.10;1.02;;;;;;;;;;6247892;22;20075;-84
2021/06/19 09:51:54;;;;;;;3.28;1.17;;;;;;;;;;6251411;22;20332;-83
2021/06/19 09:54:21;;;;;;;7.47;1.40;;;;;;;;;;6249440;22;20337;-84
2021/06/19 09:56:52;;;;;;;3.40;1.13;;;;;;;;;;6277694;22;20397;-84
2021/06/19 09:59:21;;;;;;;3.42;0.90;;;;;;;;;;6249579;22;20366;-84
2021/06/19 10:01:47;;;;;;;3.13;1.23;;;;;;;;;;6253743;22;20024;-84
2021/06/19 10:04:18;;;;;;;2.97;1.23;;;;;;;;;;6280204;22;20024;-86
2021/06/19 10:06:46;;;;;;;3.42;1.33;;;;;;;;;;6250280;22;20028;-87
2021/06/19 10:09:16;;;;;;;2.08;1.00;;;;;;;;;;6250854;22;20089;-89
2021/06/19 10:11:45;;;;;;;2.35;0.95;;;;;;;;;;6275825;22;20027;-88
2021/06/19 10:14:17;;;;;;;3.22;1.00;;;;;;;;;;6272481;22;20113;-88
2021/06/19 10:16:45;;;;;;;3.65;1.40;;;;;;;;;;6278096;22;20312;-88
2021/06/19 10:19:12;;;;;;;3.08;0.85;;;;;;;;;;6278180;22;20035;-88
2021/06/19 10:21:38;;;;;;;3.33;1.02;;;;;;;;;;6277109;22;20106;-89
2021/06/19 10:24:07;;;;;;;3.28;1.13;;;;;;;;;;6251336;22;20401;-86
2021/06/19 10:26:37;;;;;;;1.98;1.35;;;;;;;;;;6294466;22;20063;-86
2021/06/19 10:29:05;;;;;;;1.40;1.00;;;;;;;;;;6267936;22;20070;-86
2021/06/19 10:31:42;;;;;;;1.60;1.20;;;;;;;;;;6252444;22;20028;-87
2021/06/19 10:34:22;;;;;;;2.75;1.08;;;;;;;;;;6249160;22;20051;-87
2021/06/19 10:36:53;;;;;;;2.50;1.20;;;;;;;;;;6248856;22;20024;-88
2021/06/19 10:39:29;;;;;;;3.10;1.00;;;;;;;;;;6275780;22;20028;-87
2021/06/19 10:41:56;;;;;;;1.80;1.30;;;;;;;;;;6274457;22;20031;-87
2021/06/19 10:44:45;;;;;;;1.20;1.10;;;;;;;;;;6247687;22;20377;-88
2021/06/19 10:47:11;;;;;;;2.55;1.00;;;;;;;;;;6273427;22;20028;-87
2021/06/19 10:49:40;;;;;;;2.67;1.27;;;;;;;;;;6274919;22;20023;-87
2021/06/19 10:52:32;;;;;;;4.13;0.90;;;;;;;;;;6252342;22;20217;-87
2021/06/19 10:55:20;;;;;;;2.55;1.33;;;;;;;;;;6257136;22;20477;-87
2021/06/19 10:57:58;;;;;;;3.85;1.15;;;;;;;;;;6283271;22;20024;-87
2021/06/19 11:00:24;;;;;;;3.10;1.05;;;;;;;;;;6276317;22;20028;-86
2021/06/19 11:02:56;;;;;;;2.92;1.00;;;;;;;;;;6275008;22;20023;-86
2021/06/19 11:05:54;;;;;;;2.17;1.27;;;;;;;;;;6277358;22;20024;-86
2021/06/19 11:08:20;;;;;;;1.90;1.17;;;;;;;;;;6282490;22;20402;-90
2021/06/19 11:10:47;;;;;;;3.70;1.17;;;;;;;;;;6248919;22;20023;-87
2021/06/19 11:13:30;;;;;;;5.68;1.10;;;;;;;;;;6259391;22;20158;-87
2021/06/19 11:16:23;;;;;;;2.88;1.13;;;;;;;;;;6279941;22;20402;-87
2021/06/19 11:18:52;;;;;;;7.18;1.58;;;;;;;;;;6228726;22;20027;-87
2021/06/19 11:21:25;;;;;;;1.98;1.10;;;;;;;;;;6250723;22;20247;-87
2021/06/19 11:24:00;;;;;;;1.38;1.00;;;;;;;;;;6280632;22;20043;-87
2021/06/19 11:26:47;;;;;;;1.55;1.13;;;;;;;;;;6276059;22;20032;-87
2021/06/19 11:29:32;;;;;;;2.90;1.20;;;;;;;;;;6275057;22;20028;-87
2021/06/19 11:32:21;;;;;;;3.72;1.05;;;;;;;;;;6249610;22;20169;-88
2021/06/19 11:34:47;;;;;;;2.65;1.00;;;;;;;;;;6249706;22;20081;-88
2021/06/19 11:37:14;;;;;;;4.25;1.50;;;;;;;;;;6275393;22;20030;-87
2021/06/19 11:39:40;;;;;;;1.48;1.08;;;;;;;;;;6274840;22;20030;-87
2021/06/19 11:42:07;;;;;;;4.45;1.42;;;;;;;;;;6274436;22;20452;-86
2021/06/19 11:44:38;;;;;;;1.95;1.40;;;;;;;;;;6276027;22;20016;-86
2021/06/19 11:47:07;;;;;;;1.80;1.15;;;;;;;;;;6248377;22;20023;-86
2021/06/19 11:49:35;;;;;;;6.45;1.20;;;;;;;;;;6276756;22;20023;-87
2021/06/19 11:52:03;;;;;;;6.47;1.40;;;;;;;;;;6250694;22;20054;-86
2021/06/19 11:54:31;;;;;;;1.90;1.25;;;;;;;;;;6278709;22;20038;-87
2021/06/19 11:56:57;;;;;;;2.15;1.00;;;;;;;;;;6250686;22;20027;-87
2021/06/19 11:59:27;;;;;;;1.52;1.02;;;;;;;;;;6278080;22;20058;-87
2021/06/19 12:01:53;;;;;;;2.83;1.20;;;;;;;;;;6278699;22;20154;-87
2021/06/19 12:04:21;;;;;;;4.80;1.30;;;;;;;;;;6253409;22;20413;-87
2021/06/19 12:06:52;;;;;;;4.63;1.20;;;;;;;;;;6249595;22;20461;-88
2021/06/19 12:09:26;;;;;;;1.48;1.00;;;;;;;;;;6275922;22;20435;-86
2021/06/19 12:11:54;;;;;;;1.00;0.85;;;;;;;;;;6275478;22;20050;-86
2021/06/19 12:14:31;;;;;;;1.80;0.90;;;;;;;;;;6251120;22;20034;-87
2021/06/19 12:16:59;;;;;;;1.60;1.02;;;;;;;;;;6248362;22;20023;-87
2021/06/19 12:19:30;;;;;;;2.13;1.25;;;;;;;;;;6273356;22;20168;-87
2021/06/19 12:22:26;;;;;;;2.33;1.20;;;;;;;;;;6246674;22;20408;-88
2021/06/19 12:24:53;;;;;;;2.03;1.20;;;;;;;;;;6248387;22;20141;-88
2021/06/19 12:27:20;;;;;;;4.57;1.55;;;;;;;;;;6245833;22;20063;-88
2021/06/19 12:29:48;;;;;;;3.80;1.00;;;;;;;;;;6272678;22;20027;-88
2021/06/19 12:32:21;;;;;;;4.82;1.40;;;;;;;;;;6274802;22;20031;-87
2021/06/19 12:34:48;;;;;;;2.42;1.00;;;;;;;;;;6272675;22;20031;-88
2021/06/19 12:37:15;;;;;;;1.33;1.20;;;;;;;;;;6246328;22;20047;-87
2021/06/19 12:39:45;;;;;;;3.22;1.20;;;;;;;;;;6250387;22;20083;-88
2021/06/19 12:42:27;;;;;;;3.17;1.13;;;;;;;;;;6273900;22;20204;-88
2021/06/19 12:45:08;;;;;;;6.82;1.20;;;;;;;;;;6244209;22;20077;-88
2021/06/19 12:47:54;;;;;;;1.30;1.10;;;;;;;;;;6227604;22;20050;-88
2021/06/19 12:50:34;;;;;;;2.10;1.50;;;;;;;;;;6251738;22;20396;-87
2021/06/19 12:53:02;;;;;;;4.40;1.40;;;;;;;;;;6276595;22;20012;-87
2021/06/19 12:55:32;;;;;;;1.50;1.10;;;;;;;;;;6275724;22;20028;-87
2021/06/19 12:58:01;;;;;;;6.10;1.00;;;;;;;;;;6274246;22;20429;-87
2021/06/19 13:00:41;;;;;;;5.38;1.27;;;;;;;;;;6252951;22;20487;-88
2021/06/19 13:03:09;;;;;;;3.20;1.35;;;;;;;;;;6249986;22;20024;-88
2021/06/19 13:05:51;;;;;;;3.85;1.70;;;;;;;;;;6248291;22;20024;-88
2021/06/19 13:08:17;;;;;;;2.70;1.33;;;;;;;;;;6270561;22;20188;-88
2021/06/19 13:11:02;;;;;;;3.42;1.33;;;;;;;;;;6246463;22;20255;-87
2021/06/19 13:13:38;;;;;;;2.45;1.30;;;;;;;;;;6274350;22;20024;-87
2021/06/19 13:16:06;;;;;;;2.13;1.27;;;;;;;;;;6280936;22;20106;-87
2021/06/19 13:18:35;;;;;;;5.75;1.42;;;;;;;;;;6284743;22;20024;-90
2021/06/19 13:21:06;;;;;;;4.97;1.30;;;;;;;;;;6257592;22;20023;-87
2021/06/19 13:23:46;;;;;;;1.17;1.00;;;;;;;;;;6261729;22;20074;-88
2021/06/19 13:26:22;;;;;;;2.90;1.00;;;;;;;;;;6255696;22;20409;-89
2021/06/19 13:29:03;;;;;;;1.17;1.08;;;;;;;;;;6256786;22;20019;-89
2021/06/19 13:31:44;;;;;;;6.63;1.20;;;;;;;;;;6286498;22;20026;-88
2021/06/19 13:34:26;;;;;;;3.45;1.25;;;;;;;;;;6262484;22;20027;-88
2021/06/19 13:36:59;;;;;;;3.53;1.10;;;;;;;;;;6284943;22;20016;-87
2021/06/19 13:39:39;;;;;;;2.35;0.90;;;;;;;;;;6283226;22;20035;-89
2021/06/19 13:42:11;;;;;;;2.38;1.30;;;;;;;;;;6287365;22;20299;-88
2021/06/19 13:44:54;;;;;;;4.18;1.83;;;;;;;;;;6260271;22;20458;-89
2021/06/19 13:47:25;;;;;;;3.95;1.23;;;;;;;;;;6285543;22;20051;-90
2021/06/19 13:49:57;;;;;;;2.22;1.30;;;;;;;;;;6262775;22;20215;-88
2021/06/19 13:52:25;;;;;;;3.45;1.33;;;;;;;;;;6256913;22;20024;-88
2021/06/19 13:55:07;;;;;;;3.95;1.60;;;;;;;;;;6255960;22;20182;-88
2021/06/19 13:57:36;;;;;;;3.40;1.30;;;;;;;;;;6261001;22;20023;-89
2021/06/19 14:00:04;;;;;;;2.17;1.17;;;;;;;;;;6292041;22;20075;-89
2021/06/19 14:02:30;;;;;;;10.38;2.08;;;;;;;;;;6298958;22;20016;-89
2021/06/19 14:04:57;;;;;;;3.90;1.75;;;;;;;;;;6267640;22;20237;-89
2021/06/19 14:07:39;;;;;;;3.58;1.50;;;;;;;;;;6265914;22;20027;-89
2021/06/19 14:10:06;;;;;;;2.95;1.50;;;;;;;;;;6262267;22;20205;-90
2021/06/19 14:12:33;;;;;;;2.10;1.20;;;;;;;;;;6254678;22;20265;-89
2021/06/19 14:15:06;;;;;;;2.22;1.20;;;;;;;;;;6256664;22;20025;-88
2021/06/19 14:17:33;;;;;;;4.10;1.50;;;;;;;;;;6259227;22;20035;-91
2021/06/19 14:20:00;;;;;;;6.88;1.55;;;;;;;;;;6256855;22;20019;-88
2021/06/19 14:22:32;;;;;;;1.83;1.10;;;;;;;;;;6255606;23;20051;-88
2021/06/19 14:24:59;;;;;;;1.63;1.42;;;;;;;;;;6254386;23;20020;-89
2021/06/19 14:27:26;;;;;;;3.80;1.20;;;;;;;;;;6252907;22;20353;-89
2021/06/19 14:29:56;;;;;;;19.90;11.15;;;;;;;;;;6259437;23;20031;-89
2021/06/19 14:32:37;;;;;;;22.20;13.95;;;;;;;;;;6251143;22;20024;-87
2021/06/19 14:35:10;;;;;;;14.63;6.90;;;;;;;;;;6255205;23;20020;-87
2021/06/19 14:37:39;;;;;;;9.98;7.32;;;;;;;;;;6253497;22;20055;-89
2021/06/19 14:40:06;;;;;;;5.53;4.00;;;;;;;;;;6256637;22;20024;-90
2021/06/19 14:42:33;;;;;;;2.15;1.83;;;;;;;;;;6254847;23;20028;-88
2021/06/19 14:45:00;;;;;;;2.28;1.48;;;;;;;;;;6255578;23;20040;-90
2021/06/19 14:47:29;;;;;;;3.97;2.92;;;;;;;;;;6255084;23;20473;-89
2021/06/19 14:49:56;;;;;;;5.57;4.72;;;;;;;;;;6254670;23;20043;-89
2021/06/19 14:52:31;;;;;;;4.45;3.17;;;;;;;;;;6252777;22;20050;-89
2021/06/19 14:55:02;;;;;;;4.10;1.42;;;;;;;;;;6257764;22;20028;-92
2021/06/19 14:57:29;;;;;;;2.05;1.20;;;;;;;;;;6256358;22;20024;-89